Decoded Metar for CYET (EDSON in AB, CANADA) (IATA:YET) | Meteo·Mobile Aviation Weather
aviador You're here:

CYET Decoded Metar

EDSON in AB, CANADA
Report Time2018-09-25 18:00:00
UTC Time2018-09-25 18:48:10
Flight Rules vfr VFR
Wind270° at 08 kt
W.Decomp.*RWY 25: 8.0 kt HW 0.1 kt RCW
W.Rank270° ranks 2
Current wind is above 270° avg. (5.8)
Visibility9999 m
Phenomena:N/A
Clouds:N/A
Expected CloudBase > 4,000 ft AGL from Temp-Dew spread
CeilingNone
Temp13°C (ISA +4)
Dew Point03°C (51% RH)
AAT8.6°C
QNH1019 hPa
Density Alt3,419 ft
Elevation3,035 ft
Report Wrong Elevation
Raw Report
CYET 251800Z AUTO 27008KT 9SM CLR 13/03 A3010 RMK SLP210 DENSITY
ALT 3300FT=

Extra information for CYET:More info

Metar Taf Metar & Taf Last 4 Metars F.Rules Stats Wind Profile Meteogram Temp Stats Airport Information Weather charts Add Link Nearby VenuesMetar ALERT Operation Metar Decoded Social comments